sensor_id;sensor_type;location;lat;lon;timestamp;temperature;humidity
20650;DHT22;10484;48.736;9.332;2023-09-19T00:01:23;19.40;1.00
20650;DHT22;10484;48.736;9.332;2023-09-19T00:03:49;19.40;1.00
20650;DHT22;10484;48.736;9.332;2023-09-19T00:06:14;19.40;1.00
20650;DHT22;10484;48.736;9.332;2023-09-19T00:08:41;19.30;1.00
20650;DHT22;10484;48.736;9.332;2023-09-19T00:11:09;19.30;1.00
20650;DHT22;10484;48.736;9.332;2023-09-19T00:13:36;19.30;1.00
20650;DHT22;10484;48.736;9.332;2023-09-19T00:16:08;19.20;1.00
20650;DHT22;10484;48.736;9.332;2023-09-19T00:18:36;19.20;1.00
20650;DHT22;10484;48.736;9.332;2023-09-19T00:21:02;19.20;1.00
20650;DHT22;10484;48.736;9.332;2023-09-19T00:23:30;19.20;1.00
20650;DHT22;10484;48.736;9.332;2023-09-19T00:25:59;19.20;1.00
20650;DHT22;10484;48.736;9.332;2023-09-19T00:28:25;19.20;1.00
20650;DHT22;10484;48.736;9.332;2023-09-19T00:30:51;19.20;1.00
20650;DHT22;10484;48.736;9.332;2023-09-19T00:33:17;19.20;1.00
20650;DHT22;10484;48.736;9.332;2023-09-19T00:35:52;19.20;1.00
20650;DHT22;10484;48.736;9.332;2023-09-19T00:38:19;19.20;1.00
20650;DHT22;10484;48.736;9.332;2023-09-19T00:40:50;19.20;1.00
20650;DHT22;10484;48.736;9.332;2023-09-19T00:43:22;19.10;1.00
20650;DHT22;10484;48.736;9.332;2023-09-19T00:45:51;19.10;1.00
20650;DHT22;10484;48.736;9.332;2023-09-19T00:48:16;19.10;1.00
20650;DHT22;10484;48.736;9.332;2023-09-19T00:50:44;19.10;1.00
20650;DHT22;10484;48.736;9.332;2023-09-19T00:53:14;19.10;1.00
20650;DHT22;10484;48.736;9.332;2023-09-19T00:55:40;19.10;1.00
20650;DHT22;10484;48.736;9.332;2023-09-19T00:58:08;19.10;1.00
20650;DHT22;10484;48.736;9.332;2023-09-19T01:00:34;19.00;1.00
20650;DHT22;10484;48.736;9.332;2023-09-19T01:03:00;19.10;1.00
20650;DHT22;10484;48.736;9.332;2023-09-19T01:05:29;19.00;1.00
20650;DHT22;10484;48.736;9.332;2023-09-19T01:07:55;19.00;1.00
20650;DHT22;10484;48.736;9.332;2023-09-19T01:10:21;19.00;1.00
20650;DHT22;10484;48.736;9.332;2023-09-19T01:26:35;19.00;1.00
20650;DHT22;10484;48.736;9.332;2023-09-19T01:29:42;19.00;1.00
20650;DHT22;10484;48.736;9.332;2023-09-19T01:32:10;19.00;1.00
20650;DHT22;10484;48.736;9.332;2023-09-19T01:37:14;18.90;1.00
20650;DHT22;10484;48.736;9.332;2023-09-19T01:39:48;18.90;1.00
20650;DHT22;10484;48.736;9.332;2023-09-19T01:47:33;18.90;1.00
20650;DHT22;10484;48.736;9.332;2023-09-19T01:55:30;18.90;1.00
20650;DHT22;10484;48.736;9.332;2023-09-19T01:58:06;18.90;1.00
20650;DHT22;10484;48.736;9.332;2023-09-19T02:00:35;18.90;1.00
20650;DHT22;10484;48.736;9.332;2023-09-19T02:03:03;18.80;1.00
20650;DHT22;10484;48.736;9.332;2023-09-19T02:05:29;18.80;1.00
20650;DHT22;10484;48.736;9.332;2023-09-19T02:07:55;18.80;1.00
20650;DHT22;10484;48.736;9.332;2023-09-19T02:10:21;18.90;1.00
20650;DHT22;10484;48.736;9.332;2023-09-19T02:12:48;18.80;1.00
20650;DHT22;10484;48.736;9.332;2023-09-19T02:15:14;18.80;1.00
20650;DHT22;10484;48.736;9.332;2023-09-19T02:17:42;18.80;1.00
20650;DHT22;10484;48.736;9.332;2023-09-19T02:20:08;18.80;1.00
20650;DHT22;10484;48.736;9.332;2023-09-19T02:22:35;18.80;1.00
20650;DHT22;10484;48.736;9.332;2023-09-19T02:25:01;18.80;1.00
20650;DHT22;10484;48.736;9.332;2023-09-19T02:27:27;18.80;1.00
20650;DHT22;10484;48.736;9.332;2023-09-19T02:29:52;18.80;1.00
20650;DHT22;10484;48.736;9.332;2023-09-19T02:32:18;18.80;1.00
20650;DHT22;10484;48.736;9.332;2023-09-19T02:34:44;18.80;1.00
20650;DHT22;10484;48.736;9.332;2023-09-19T02:37:10;18.80;1.00
20650;DHT22;10484;48.736;9.332;2023-09-19T02:39:36;18.80;1.00
20650;DHT22;10484;48.736;9.332;2023-09-19T02:42:02;18.80;1.00
20650;DHT22;10484;48.736;9.332;2023-09-19T02:44:29;18.80;1.00
20650;DHT22;10484;48.736;9.332;2023-09-19T02:46:55;18.80;1.00
20650;DHT22;10484;48.736;9.332;2023-09-19T02:49:22;18.80;1.00
20650;DHT22;10484;48.736;9.332;2023-09-19T02:51:48;18.80;1.00
20650;DHT22;10484;48.736;9.332;2023-09-19T02:54:13;18.80;1.00
20650;DHT22;10484;48.736;9.332;2023-09-19T02:56:41;18.80;1.00
20650;DHT22;10484;48.736;9.332;2023-09-19T02:59:06;18.70;1.00
20650;DHT22;10484;48.736;9.332;2023-09-19T03:01:32;18.70;1.00
20650;DHT22;10484;48.736;9.332;2023-09-19T03:03:59;18.70;1.00
20650;DHT22;10484;48.736;9.332;2023-09-19T03:06:24;18.70;1.00
20650;DHT22;10484;48.736;9.332;2023-09-19T03:08:50;18.60;1.00
20650;DHT22;10484;48.736;9.332;2023-09-19T03:11:17;18.60;1.00
20650;DHT22;10484;48.736;9.332;2023-09-19T03:13:51;18.60;1.00
20650;DHT22;10484;48.736;9.332;2023-09-19T03:16:16;18.60;1.00
20650;DHT22;10484;48.736;9.332;2023-09-19T03:18:42;18.60;1.00
20650;DHT22;10484;48.736;9.332;2023-09-19T03:21:08;18.60;1.00
20650;DHT22;10484;48.736;9.332;2023-09-19T03:23:33;18.60;1.00
20650;DHT22;10484;48.736;9.332;2023-09-19T03:25:59;18.60;1.00
20650;DHT22;10484;48.736;9.332;2023-09-19T03:28:25;18.70;1.00
20650;DHT22;10484;48.736;9.332;2023-09-19T03:31:01;18.60;1.00
20650;DHT22;10484;48.736;9.332;2023-09-19T03:33:27;18.60;1.00
20650;DHT22;10484;48.736;9.332;2023-09-19T03:35:53;18.60;1.00
20650;DHT22;10484;48.736;9.332;2023-09-19T03:38:19;18.60;1.00
20650;DHT22;10484;48.736;9.332;2023-09-19T03:40:45;18.60;1.00
20650;DHT22;10484;48.736;9.332;2023-09-19T03:43:10;18.60;1.00
20650;DHT22;10484;48.736;9.332;2023-09-19T03:45:36;18.60;1.00
20650;DHT22;10484;48.736;9.332;2023-09-19T03:48:11;18.60;1.00
20650;DHT22;10484;48.736;9.332;2023-09-19T03:50:36;18.60;1.00
20650;DHT22;10484;48.736;9.332;2023-09-19T03:53:02;18.60;1.00
20650;DHT22;10484;48.736;9.332;2023-09-19T03:55:28;18.60;1.00
20650;DHT22;10484;48.736;9.332;2023-09-19T03:57:56;18.50;1.00
20650;DHT22;10484;48.736;9.332;2023-09-19T04:00:22;18.50;1.00
20650;DHT22;10484;48.736;9.332;2023-09-19T04:02:52;18.50;1.00
20650;DHT22;10484;48.736;9.332;2023-09-19T04:05:18;18.50;1.00
20650;DHT22;10484;48.736;9.332;2023-09-19T04:07:44;18.50;1.00
20650;DHT22;10484;48.736;9.332;2023-09-19T04:10:10;18.50;1.00
20650;DHT22;10484;48.736;9.332;2023-09-19T04:12:37;18.50;1.00
20650;DHT22;10484;48.736;9.332;2023-09-19T04:15:06;18.50;1.00
20650;DHT22;10484;48.736;9.332;2023-09-19T04:17:32;18.50;1.00
20650;DHT22;10484;48.736;9.332;2023-09-19T04:19:59;18.50;1.00
20650;DHT22;10484;48.736;9.332;2023-09-19T04:22:25;18.50;1.00
20650;DHT22;10484;48.736;9.332;2023-09-19T04:24:51;18.50;1.00
20650;DHT22;10484;48.736;9.332;2023-09-19T04:27:16;18.50;1.00
20650;DHT22;10484;48.736;9.332;2023-09-19T04:29:42;18.40;1.00
20650;DHT22;10484;48.736;9.332;2023-09-19T04:32:08;18.40;1.00
20650;DHT22;10484;48.736;9.332;2023-09-19T04:34:35;18.40;1.00
20650;DHT22;10484;48.736;9.332;2023-09-19T04:37:01;18.40;1.00
20650;DHT22;10484;48.736;9.332;2023-09-19T04:39:27;18.40;1.00
20650;DHT22;10484;48.736;9.332;2023-09-19T04:41:53;18.40;1.00
20650;DHT22;10484;48.736;9.332;2023-09-19T04:44:19;18.40;1.00
20650;DHT22;10484;48.736;9.332;2023-09-19T04:46:45;18.40;1.00
20650;DHT22;10484;48.736;9.332;2023-09-19T04:49:12;18.40;1.00
20650;DHT22;10484;48.736;9.332;2023-09-19T04:51:38;18.30;1.00
20650;DHT22;10484;48.736;9.332;2023-09-19T04:54:04;18.30;1.00
20650;DHT22;10484;48.736;9.332;2023-09-19T04:56:29;18.30;1.00
20650;DHT22;10484;48.736;9.332;2023-09-19T04:58:55;18.30;1.00
20650;DHT22;10484;48.736;9.332;2023-09-19T05:01:21;18.30;1.00
20650;DHT22;10484;48.736;9.332;2023-09-19T05:03:48;18.30;1.00
20650;DHT22;10484;48.736;9.332;2023-09-19T05:06:18;18.30;1.00
20650;DHT22;10484;48.736;9.332;2023-09-19T05:08:43;18.30;1.00
20650;DHT22;10484;48.736;9.332;2023-09-19T05:11:09;18.30;1.00
20650;DHT22;10484;48.736;9.332;2023-09-19T05:13:34;18.30;1.00
20650;DHT22;10484;48.736;9.332;2023-09-19T05:16:03;18.20;1.00
20650;DHT22;10484;48.736;9.332;2023-09-19T05:18:28;18.20;1.00
20650;DHT22;10484;48.736;9.332;2023-09-19T05:20:54;18.20;1.00
20650;DHT22;10484;48.736;9.332;2023-09-19T05:23:20;18.20;1.00
20650;DHT22;10484;48.736;9.332;2023-09-19T05:25:46;18.20;1.30
20650;DHT22;10484;48.736;9.332;2023-09-19T05:28:12;18.20;1.70
20650;DHT22;10484;48.736;9.332;2023-09-19T05:30:40;18.20;1.90
20650;DHT22;10484;48.736;9.332;2023-09-19T05:33:06;18.20;2.10
20650;DHT22;10484;48.736;9.332;2023-09-19T05:35:33;18.20;2.30
20650;DHT22;10484;48.736;9.332;2023-09-19T05:37:59;18.20;2.60
20650;DHT22;10484;48.736;9.332;2023-09-19T05:40:25;18.20;2.80
20650;DHT22;10484;48.736;9.332;2023-09-19T05:42:51;18.20;3.10
20650;DHT22;10484;48.736;9.332;2023-09-19T05:45:17;18.20;3.50
20650;DHT22;10484;48.736;9.332;2023-09-19T05:47:48;18.20;4.20
20650;DHT22;10484;48.736;9.332;2023-09-19T05:50:14;18.20;4.50
20650;DHT22;10484;48.736;9.332;2023-09-19T05:52:42;18.20;4.80
20650;DHT22;10484;48.736;9.332;2023-09-19T05:55:09;18.20;5.10
20650;DHT22;10484;48.736;9.332;2023-09-19T05:57:36;18.20;5.40
20650;DHT22;10484;48.736;9.332;2023-09-19T06:00:05;18.20;5.70
20650;DHT22;10484;48.736;9.332;2023-09-19T06:02:38;18.20;6.00
20650;DHT22;10484;48.736;9.332;2023-09-19T06:05:06;18.20;6.30
20650;DHT22;10484;48.736;9.332;2023-09-19T06:07:32;18.20;10.60
20650;DHT22;10484;48.736;9.332;2023-09-19T06:10:04;18.10;9.40
20650;DHT22;10484;48.736;9.332;2023-09-19T06:12:37;18.10;9.60
20650;DHT22;10484;48.736;9.332;2023-09-19T06:15:04;18.10;9.60
20650;DHT22;10484;48.736;9.332;2023-09-19T06:17:31;18.10;9.80
20650;DHT22;10484;48.736;9.332;2023-09-19T06:19:56;18.10;11.10
20650;DHT22;10484;48.736;9.332;2023-09-19T06:22:22;18.00;10.60
20650;DHT22;10484;48.736;9.332;2023-09-19T06:24:49;18.00;11.70
20650;DHT22;10484;48.736;9.332;2023-09-19T06:27:15;17.90;12.30
20650;DHT22;10484;48.736;9.332;2023-09-19T06:29:40;17.90;12.30
20650;DHT22;10484;48.736;9.332;2023-09-19T06:32:08;18.00;12.50
20650;DHT22;10484;48.736;9.332;2023-09-19T06:34:34;18.00;12.10
20650;DHT22;10484;48.736;9.332;2023-09-19T06:37:00;18.00;12.20
20650;DHT22;10484;48.736;9.332;2023-09-19T06:39:25;18.00;12.50
20650;DHT22;10484;48.736;9.332;2023-09-19T06:41:52;18.00;12.50
20650;DHT22;10484;48.736;9.332;2023-09-19T06:44:20;18.00;12.60
20650;DHT22;10484;48.736;9.332;2023-09-19T06:46:47;18.00;12.70
20650;DHT22;10484;48.736;9.332;2023-09-19T06:49:15;18.00;12.80
20650;DHT22;10484;48.736;9.332;2023-09-19T06:51:41;18.00;12.80
20650;DHT22;10484;48.736;9.332;2023-09-19T06:54:07;18.00;13.00
20650;DHT22;10484;48.736;9.332;2023-09-19T06:56:33;18.00;13.30
20650;DHT22;10484;48.736;9.332;2023-09-19T06:58:58;18.00;13.60
20650;DHT22;10484;48.736;9.332;2023-09-19T07:01:24;18.00;13.80
20650;DHT22;10484;48.736;9.332;2023-09-19T07:03:50;18.00;14.20
20650;DHT22;10484;48.736;9.332;2023-09-19T07:06:16;18.00;14.40
20650;DHT22;10484;48.736;9.332;2023-09-19T07:08:43;18.00;14.70
20650;DHT22;10484;48.736;9.332;2023-09-19T07:11:08;17.90;15.20
20650;DHT22;10484;48.736;9.332;2023-09-19T07:13:34;18.00;15.50
20650;DHT22;10484;48.736;9.332;2023-09-19T07:16:00;17.90;16.00
20650;DHT22;10484;48.736;9.332;2023-09-19T07:18:26;18.00;16.90
20650;DHT22;10484;48.736;9.332;2023-09-19T07:20:57;18.00;17.10
20650;DHT22;10484;48.736;9.332;2023-09-19T07:23:26;18.00;17.50
20650;DHT22;10484;48.736;9.332;2023-09-19T07:25:52;18.00;17.70
20650;DHT22;10484;48.736;9.332;2023-09-19T07:28:21;18.00;18.10
20650;DHT22;10484;48.736;9.332;2023-09-19T07:30:48;18.00;17.90
20650;DHT22;10484;48.736;9.332;2023-09-19T07:33:13;18.00;18.50
20650;DHT22;10484;48.736;9.332;2023-09-19T07:35:39;18.00;18.90
20650;DHT22;10484;48.736;9.332;2023-09-19T07:38:06;18.00;19.00
20650;DHT22;10484;48.736;9.332;2023-09-19T07:40:31;18.00;19.10
20650;DHT22;10484;48.736;9.332;2023-09-19T07:42:57;18.10;19.30
20650;DHT22;10484;48.736;9.332;2023-09-19T07:45:30;18.10;19.30
20650;DHT22;10484;48.736;9.332;2023-09-19T07:47:56;18.10;19.50
20650;DHT22;10484;48.736;9.332;2023-09-19T07:50:21;18.10;19.90
20650;DHT22;10484;48.736;9.332;2023-09-19T07:52:48;18.20;20.70
20650;DHT22;10484;48.736;9.332;2023-09-19T07:55:13;18.20;21.00
20650;DHT22;10484;48.736;9.332;2023-09-19T07:57:43;18.30;20.80
20650;DHT22;10484;48.736;9.332;2023-09-19T08:00:10;18.30;20.30
20650;DHT22;10484;48.736;9.332;2023-09-19T08:02:36;18.40;20.30
20650;DHT22;10484;48.736;9.332;2023-09-19T08:05:03;18.50;19.00
20650;DHT22;10484;48.736;9.332;2023-09-19T08:07:32;18.60;18.00
20650;DHT22;10484;48.736;9.332;2023-09-19T08:09:58;18.70;16.60
20650;DHT22;10484;48.736;9.332;2023-09-19T08:12:24;18.80;15.50
20650;DHT22;10484;48.736;9.332;2023-09-19T08:14:50;18.90;15.30
20650;DHT22;10484;48.736;9.332;2023-09-19T08:17:16;19.00;14.10
20650;DHT22;10484;48.736;9.332;2023-09-19T08:19:42;19.00;13.20
20650;DHT22;10484;48.736;9.332;2023-09-19T08:22:10;19.10;13.40
20650;DHT22;10484;48.736;9.332;2023-09-19T08:24:36;19.20;12.00
20650;DHT22;10484;48.736;9.332;2023-09-19T08:27:04;19.30;11.40
20650;DHT22;10484;48.736;9.332;2023-09-19T08:29:30;19.40;10.60
20650;DHT22;10484;48.736;9.332;2023-09-19T08:31:59;19.50;9.70
20650;DHT22;10484;48.736;9.332;2023-09-19T08:34:25;19.60;8.70
20650;DHT22;10484;48.736;9.332;2023-09-19T08:36:51;19.70;7.90
20650;DHT22;10484;48.736;9.332;2023-09-19T08:39:18;19.80;7.80
20650;DHT22;10484;48.736;9.332;2023-09-19T08:41:44;19.90;6.70
20650;DHT22;10484;48.736;9.332;2023-09-19T08:44:10;20.00;6.00
20650;DHT22;10484;48.736;9.332;2023-09-19T08:46:37;20.00;4.50
20650;DHT22;10484;48.736;9.332;2023-09-19T08:49:13;20.00;3.60
20650;DHT22;10484;48.736;9.332;2023-09-19T08:51:45;20.00;3.90
20650;DHT22;10484;48.736;9.332;2023-09-19T08:54:25;19.90;2.80
20650;DHT22;10484;48.736;9.332;2023-09-19T08:56:55;19.90;1.50
20650;DHT22;10484;48.736;9.332;2023-09-19T08:59:22;19.90;1.00
20650;DHT22;10484;48.736;9.332;2023-09-19T09:01:53;19.80;1.00
20650;DHT22;10484;48.736;9.332;2023-09-19T09:04:19;19.80;1.00
20650;DHT22;10484;48.736;9.332;2023-09-19T09:06:46;19.80;1.00
20650;DHT22;10484;48.736;9.332;2023-09-19T09:09:15;19.70;1.00
20650;DHT22;10484;48.736;9.332;2023-09-19T09:11:40;19.70;1.00
20650;DHT22;10484;48.736;9.332;2023-09-19T09:14:06;19.70;1.00
20650;DHT22;10484;48.736;9.332;2023-09-19T09:16:35;19.60;1.00
20650;DHT22;10484;48.736;9.332;2023-09-19T09:19:01;19.70;1.00
20650;DHT22;10484;48.736;9.332;2023-09-19T09:21:27;19.70;1.00
20650;DHT22;10484;48.736;9.332;2023-09-19T09:23:53;19.80;1.00
20650;DHT22;10484;48.736;9.332;2023-09-19T09:29:04;20.10;1.00
20650;DHT22;10484;48.736;9.332;2023-09-19T09:31:29;20.20;1.00
20650;DHT22;10484;48.736;9.332;2023-09-19T09:33:56;20.30;1.00
20650;DHT22;10484;48.736;9.332;2023-09-19T09:36:36;20.30;1.00
20650;DHT22;10484;48.736;9.332;2023-09-19T09:39:02;20.30;1.00
20650;DHT22;10484;48.736;9.332;2023-09-19T09:41:41;20.30;1.00
20650;DHT22;10484;48.736;9.332;2023-09-19T09:44:17;20.40;1.00
20650;DHT22;10484;48.736;9.332;2023-09-19T09:46:45;20.50;1.00
20650;DHT22;10484;48.736;9.332;2023-09-19T09:49:24;20.60;1.00
20650;DHT22;10484;48.736;9.332;2023-09-19T09:52:06;20.70;1.00
20650;DHT22;10484;48.736;9.332;2023-09-19T09:55:02;20.80;1.00
20650;DHT22;10484;48.736;9.332;2023-09-19T09:57:31;20.90;1.00
20650;DHT22;10484;48.736;9.332;2023-09-19T09:59:58;21.10;1.00
20650;DHT22;10484;48.736;9.332;2023-09-19T10:02:28;21.20;1.00
20650;DHT22;10484;48.736;9.332;2023-09-19T10:05:22;21.20;1.00
20650;DHT22;10484;48.736;9.332;2023-09-19T10:07:54;21.30;1.00
20650;DHT22;10484;48.736;9.332;2023-09-19T10:10:37;21.30;1.00
20650;DHT22;10484;48.736;9.332;2023-09-19T10:13:20;21.30;1.00
20650;DHT22;10484;48.736;9.332;2023-09-19T10:15:50;21.30;1.00
20650;DHT22;10484;48.736;9.332;2023-09-19T10:18:20;21.40;1.00
20650;DHT22;10484;48.736;9.332;2023-09-19T10:20:47;21.40;1.00
20650;DHT22;10484;48.736;9.332;2023-09-19T10:23:15;21.40;1.00
20650;DHT22;10484;48.736;9.332;2023-09-19T10:25:47;21.40;1.00
20650;DHT22;10484;48.736;9.332;2023-09-19T10:28:15;21.50;1.00
20650;DHT22;10484;48.736;9.332;2023-09-19T10:30:45;21.60;1.00
20650;DHT22;10484;48.736;9.332;2023-09-19T10:33:13;21.60;1.00
20650;DHT22;10484;48.736;9.332;2023-09-19T10:35:42;21.60;1.00
20650;DHT22;10484;48.736;9.332;2023-09-19T10:38:11;21.70;1.00
20650;DHT22;10484;48.736;9.332;2023-09-19T10:40:37;21.70;1.00
20650;DHT22;10484;48.736;9.332;2023-09-19T10:43:12;21.80;1.00
20650;DHT22;10484;48.736;9.332;2023-09-19T10:45:40;21.80;1.00
20650;DHT22;10484;48.736;9.332;2023-09-19T10:48:06;21.80;1.00
20650;DHT22;10484;48.736;9.332;2023-09-19T10:50:57;21.80;1.00
20650;DHT22;10484;48.736;9.332;2023-09-19T10:53:48;21.90;1.00
20650;DHT22;10484;48.736;9.332;2023-09-19T10:56:31;21.90;1.00
20650;DHT22;10484;48.736;9.332;2023-09-19T10:59:16;22.00;1.00
20650;DHT22;10484;48.736;9.332;2023-09-19T11:01:56;22.00;1.00
20650;DHT22;10484;48.736;9.332;2023-09-19T11:04:33;22.00;1.00
20650;DHT22;10484;48.736;9.332;2023-09-19T11:07:08;22.00;1.00
20650;DHT22;10484;48.736;9.332;2023-09-19T11:14:58;21.90;1.00
20650;DHT22;10484;48.736;9.332;2023-09-19T11:17:31;21.90;1.00
20650;DHT22;10484;48.736;9.332;2023-09-19T11:30:47;22.20;1.00
20650;DHT22;10484;48.736;9.332;2023-09-19T11:46:54;22.70;1.00
20650;DHT22;10484;48.736;9.332;2023-09-19T11:49:31;22.70;1.00
20650;DHT22;10484;48.736;9.332;2023-09-19T11:52:03;22.80;1.00
20650;DHT22;10484;48.736;9.332;2023-09-19T11:54:35;22.80;1.00
20650;DHT22;10484;48.736;9.332;2023-09-19T11:57:02;22.90;1.00
20650;DHT22;10484;48.736;9.332;2023-09-19T11:59:29;22.90;1.00
20650;DHT22;10484;48.736;9.332;2023-09-19T12:01:56;23.00;1.00
20650;DHT22;10484;48.736;9.332;2023-09-19T12:04:37;23.00;1.00
20650;DHT22;10484;48.736;9.332;2023-09-19T12:07:14;23.10;1.00
20650;DHT22;10484;48.736;9.332;2023-09-19T12:09:46;23.10;1.00
20650;DHT22;10484;48.736;9.332;2023-09-19T12:12:24;23.20;1.00
20650;DHT22;10484;48.736;9.332;2023-09-19T12:14:54;23.20;1.00
20650;DHT22;10484;48.736;9.332;2023-09-19T12:17:20;23.20;1.00
20650;DHT22;10484;48.736;9.332;2023-09-19T12:19:56;23.30;1.00
20650;DHT22;10484;48.736;9.332;2023-09-19T12:22:22;23.30;1.00
20650;DHT22;10484;48.736;9.332;2023-09-19T12:24:48;23.30;1.00
20650;DHT22;10484;48.736;9.332;2023-09-19T12:27:16;23.40;1.00
20650;DHT22;10484;48.736;9.332;2023-09-19T12:29:51;23.40;1.00
20650;DHT22;10484;48.736;9.332;2023-09-19T12:32:34;23.50;1.00
20650;DHT22;10484;48.736;9.332;2023-09-19T12:35:00;23.50;1.00
20650;DHT22;10484;48.736;9.332;2023-09-19T12:37:32;23.60;1.00
20650;DHT22;10484;48.736;9.332;2023-09-19T12:40:06;23.60;1.00
20650;DHT22;10484;48.736;9.332;2023-09-19T12:42:48;23.70;1.00
20650;DHT22;10484;48.736;9.332;2023-09-19T12:45:14;23.70;1.00
20650;DHT22;10484;48.736;9.332;2023-09-19T12:51:12;23.90;1.00
20650;DHT22;10484;48.736;9.332;2023-09-19T12:53:43;23.90;1.00
20650;DHT22;10484;48.736;9.332;2023-09-19T12:56:11;23.90;1.00
20650;DHT22;10484;48.736;9.332;2023-09-19T12:58:52;24.00;1.00
20650;DHT22;10484;48.736;9.332;2023-09-19T13:01:23;24.00;1.00
20650;DHT22;10484;48.736;9.332;2023-09-19T13:04:12;24.00;1.00
20650;DHT22;10484;48.736;9.332;2023-09-19T13:06:38;24.10;1.00
20650;DHT22;10484;48.736;9.332;2023-09-19T13:09:09;24.10;1.00
20650;DHT22;10484;48.736;9.332;2023-09-19T13:11:37;24.20;1.00
20650;DHT22;10484;48.736;9.332;2023-09-19T13:17:01;24.20;1.00
20650;DHT22;10484;48.736;9.332;2023-09-19T13:25:08;24.30;1.00
20650;DHT22;10484;48.736;9.332;2023-09-19T13:27:34;24.40;1.00
20650;DHT22;10484;48.736;9.332;2023-09-19T13:29:59;24.40;1.00
20650;DHT22;10484;48.736;9.332;2023-09-19T13:32:26;24.40;1.00
20650;DHT22;10484;48.736;9.332;2023-09-19T13:34:51;24.50;1.00
20650;DHT22;10484;48.736;9.332;2023-09-19T13:37:17;24.50;1.00
20650;DHT22;10484;48.736;9.332;2023-09-19T13:39:43;24.50;1.00
20650;DHT22;10484;48.736;9.332;2023-09-19T13:42:13;24.50;1.00
20650;DHT22;10484;48.736;9.332;2023-09-19T13:44:39;24.60;1.00
20650;DHT22;10484;48.736;9.332;2023-09-19T13:47:06;24.60;1.00
20650;DHT22;10484;48.736;9.332;2023-09-19T13:49:35;24.60;1.00
20650;DHT22;10484;48.736;9.332;2023-09-19T13:52:01;24.60;1.00
20650;DHT22;10484;48.736;9.332;2023-09-19T13:54:29;24.70;1.00
20650;DHT22;10484;48.736;9.332;2023-09-19T13:56:55;24.70;1.00
20650;DHT22;10484;48.736;9.332;2023-09-19T13:59:20;24.80;1.00
20650;DHT22;10484;48.736;9.332;2023-09-19T14:01:49;24.80;1.00
20650;DHT22;10484;48.736;9.332;2023-09-19T14:04:14;24.80;1.00
20650;DHT22;10484;48.736;9.332;2023-09-19T14:06:42;24.80;1.00
20650;DHT22;10484;48.736;9.332;2023-09-19T14:09:07;24.90;1.00
20650;DHT22;10484;48.736;9.332;2023-09-19T14:11:33;24.90;1.00
20650;DHT22;10484;48.736;9.332;2023-09-19T14:13:59;24.90;1.00
20650;DHT22;10484;48.736;9.332;2023-09-19T14:16:25;24.90;1.00
20650;DHT22;10484;48.736;9.332;2023-09-19T14:18:55;25.00;1.00
20650;DHT22;10484;48.736;9.332;2023-09-19T14:21:21;25.00;1.00
20650;DHT22;10484;48.736;9.332;2023-09-19T14:23:46;25.00;1.00
20650;DHT22;10484;48.736;9.332;2023-09-19T14:26:13;25.00;1.00
20650;DHT22;10484;48.736;9.332;2023-09-19T14:28:39;25.10;1.00
20650;DHT22;10484;48.736;9.332;2023-09-19T14:31:06;25.20;1.00
20650;DHT22;10484;48.736;9.332;2023-09-19T14:33:32;25.10;1.00
20650;DHT22;10484;48.736;9.332;2023-09-19T14:35:58;25.20;1.00
20650;DHT22;10484;48.736;9.332;2023-09-19T14:38:23;25.20;1.00
20650;DHT22;10484;48.736;9.332;2023-09-19T14:40:59;25.20;1.00
20650;DHT22;10484;48.736;9.332;2023-09-19T14:43:25;25.20;1.00
20650;DHT22;10484;48.736;9.332;2023-09-19T14:45:50;25.20;1.00
20650;DHT22;10484;48.736;9.332;2023-09-19T14:48:16;25.20;1.00
20650;DHT22;10484;48.736;9.332;2023-09-19T14:50:42;25.20;1.00
20650;DHT22;10484;48.736;9.332;2023-09-19T14:53:09;25.20;1.00
20650;DHT22;10484;48.736;9.332;2023-09-19T14:55:39;25.20;1.00
20650;DHT22;10484;48.736;9.332;2023-09-19T14:58:07;25.20;1.00
20650;DHT22;10484;48.736;9.332;2023-09-19T15:00:33;25.20;1.00
20650;DHT22;10484;48.736;9.332;2023-09-19T15:03:00;25.20;1.00
20650;DHT22;10484;48.736;9.332;2023-09-19T15:05:27;25.30;1.00
20650;DHT22;10484;48.736;9.332;2023-09-19T15:07:54;25.30;1.00
20650;DHT22;10484;48.736;9.332;2023-09-19T15:10:22;25.30;1.00
20650;DHT22;10484;48.736;9.332;2023-09-19T15:12:48;25.20;1.00
20650;DHT22;10484;48.736;9.332;2023-09-19T15:15:14;25.20;1.00
20650;DHT22;10484;48.736;9.332;2023-09-19T15:17:39;25.20;1.00
20650;DHT22;10484;48.736;9.332;2023-09-19T15:20:06;25.20;1.00
20650;DHT22;10484;48.736;9.332;2023-09-19T15:22:35;25.20;1.00
20650;DHT22;10484;48.736;9.332;2023-09-19T15:25:02;25.30;1.00
20650;DHT22;10484;48.736;9.332;2023-09-19T15:27:28;25.20;1.00
20650;DHT22;10484;48.736;9.332;2023-09-19T15:29:56;25.20;1.00
20650;DHT22;10484;48.736;9.332;2023-09-19T15:32:24;25.20;1.00
20650;DHT22;10484;48.736;9.332;2023-09-19T15:34:49;25.20;1.00
20650;DHT22;10484;48.736;9.332;2023-09-19T15:37:15;25.20;1.00
20650;DHT22;10484;48.736;9.332;2023-09-19T15:39:41;25.20;1.00
20650;DHT22;10484;48.736;9.332;2023-09-19T15:42:07;25.20;1.00
20650;DHT22;10484;48.736;9.332;2023-09-19T15:44:32;25.20;1.00
20650;DHT22;10484;48.736;9.332;2023-09-19T15:46:58;25.10;1.00
20650;DHT22;10484;48.736;9.332;2023-09-19T15:49:24;25.10;1.00
20650;DHT22;10484;48.736;9.332;2023-09-19T15:51:50;25.10;1.00
20650;DHT22;10484;48.736;9.332;2023-09-19T15:54:16;25.00;1.00
20650;DHT22;10484;48.736;9.332;2023-09-19T15:56:44;25.00;1.00
20650;DHT22;10484;48.736;9.332;2023-09-19T15:59:10;24.90;1.00
20650;DHT22;10484;48.736;9.332;2023-09-19T16:01:41;24.90;1.00
20650;DHT22;10484;48.736;9.332;2023-09-19T16:04:08;24.80;1.00
20650;DHT22;10484;48.736;9.332;2023-09-19T16:06:38;24.80;1.00
20650;DHT22;10484;48.736;9.332;2023-09-19T16:09:04;24.80;1.00
20650;DHT22;10484;48.736;9.332;2023-09-19T16:11:32;24.80;1.00
20650;DHT22;10484;48.736;9.332;2023-09-19T16:13:58;24.80;1.00
20650;DHT22;10484;48.736;9.332;2023-09-19T16:16:26;24.70;1.00
20650;DHT22;10484;48.736;9.332;2023-09-19T16:18:56;24.70;1.00
20650;DHT22;10484;48.736;9.332;2023-09-19T16:21:28;24.70;1.00
20650;DHT22;10484;48.736;9.332;2023-09-19T16:23:55;24.70;1.00
20650;DHT22;10484;48.736;9.332;2023-09-19T16:26:22;24.60;1.00
20650;DHT22;10484;48.736;9.332;2023-09-19T16:28:50;24.60;1.00
20650;DHT22;10484;48.736;9.332;2023-09-19T16:31:16;24.60;1.00
20650;DHT22;10484;48.736;9.332;2023-09-19T16:33:44;24.50;1.00
20650;DHT22;10484;48.736;9.332;2023-09-19T16:36:11;24.60;1.00
20650;DHT22;10484;48.736;9.332;2023-09-19T16:38:38;24.50;1.00
20650;DHT22;10484;48.736;9.332;2023-09-19T16:41:05;24.50;1.00
20650;DHT22;10484;48.736;9.332;2023-09-19T16:43:31;24.40;1.00
20650;DHT22;10484;48.736;9.332;2023-09-19T16:46:05;24.50;1.00
20650;DHT22;10484;48.736;9.332;2023-09-19T16:48:34;24.40;1.00
20650;DHT22;10484;48.736;9.332;2023-09-19T16:51:11;24.40;1.00
20650;DHT22;10484;48.736;9.332;2023-09-19T16:53:37;24.30;1.00
20650;DHT22;10484;48.736;9.332;2023-09-19T16:56:08;24.30;1.00
20650;DHT22;10484;48.736;9.332;2023-09-19T16:58:38;24.20;1.00
20650;DHT22;10484;48.736;9.332;2023-09-19T17:01:08;24.20;1.00
20650;DHT22;10484;48.736;9.332;2023-09-19T17:03:38;24.20;1.00